메인 페이지
METAR-TAF:

METAR-TAF

공항 :

샌프란시스코, 캘리포니아, 미국

샌프란시스코 국제공항

위도: 37-37-11N, 경도: 122-21-53W, 고도: 3m

현재 날씨관측

예보는 7분 전, 04:56시(UTC)에 발표되었습니다.
10kt
온도 12°C
습도 76%
기압 1017 hPa
시정: 16.1km
고도 800ft 상공 구름 조금
고도 18000ft 상공 구름 보통

METAR: KSFO 250456Z 28010KT 10SM FEW008 SCT180 12/08 A3003 RMK AO2 SLP169 T01220078

시각: 22:03 (05:03 UTC)

예보

예보는 2 시간 6분 전, 02:57시(UTC)에 발표되었습니다.
예보 대상 시간: 25일 03시부터 26일 06시까지 (UTC)
12kt
시정: 10km
고도 1300ft 상공 구름 조금
고도 20000ft 상공 구름 보통
25일 0800시부터 (UTC)
서북서7kt
시정: 10km
고도 1100ft 상공 구름 보통
25일 1000시부터 (UTC)
5kt
시정: 9.7km
고도 1000ft 상공 구름 많음
박무
25일 1700시부터 (UTC)
북북서5kt
시정: 10km
고도 1100ft 상공 구름 보통
25일 2100시부터 (UTC)
서북서15kt
시정: 10km
고도 1200ft 상공 구름 조금
고도 20000ft 상공 구름 보통
26일 0300시부터 (UTC)
12kt
시정: 10km
고도 1200ft 상공 구름 보통
고도 20000ft 상공 구름 보통

TAF: KSFO 250257Z 2503/2606 28012KT P6SM FEW013 SCT200 FM250800 29007KT P6SM SCT011 FM251000 28005KT 6SM BR BKN010 FM251700 33005KT P6SM SCT011 FM252100 30015KT P6SM FEW012 SCT200 FM260300 28012KT P6SM SCT012 SCT200

4,000개 이상의 공항 관측 자료 및 예보 (METAR 및 TAF 보고).

지도상에서 검색 가능한 기상관측소가 노란 점과 빨간 점으로 표시되어 있습니다.

기상관측소 명을 보려면 표시 위로 마우스를 이동하세요.

날씨 관측과 예보를 보려면 클릭하세요.

지도 변경 : 확대하려면 엑스 표시가 있는 녹색 버튼, 축소하려면 빼기 표시가 있는 녹색 버튼, 다음 페이지의 지도를 보려면 녹색 화살표를 클릭하세요.


METAR-TAF: